createdAt,value
2018-12-22T00:01:16.731Z,82.50
2018-12-22T00:03:48.993Z,82.60
2018-12-22T00:06:20.251Z,82.70
2018-12-22T00:08:51.551Z,83.00
2018-12-22T00:11:23.470Z,83.20
2018-12-22T00:13:56.191Z,83.40
2018-12-22T00:16:27.971Z,83.60
2018-12-22T00:19:00.352Z,83.60
2018-12-22T00:21:31.991Z,83.80
2018-12-22T00:24:04.272Z,84.00
2018-12-22T00:26:35.552Z,83.90
2018-12-22T00:29:07.574Z,83.90
2018-12-22T00:31:39.413Z,83.60
2018-12-22T00:34:11.712Z,82.60
2018-12-22T00:36:43.252Z,83.60
2018-12-22T00:39:15.574Z,83.40
2018-12-22T00:41:47.494Z,83.40
2018-12-22T00:44:19.053Z,83.20
2018-12-22T00:46:50.486Z,84.00
2018-12-22T00:49:22.347Z,83.30
2018-12-22T00:51:54.287Z,83.00
2018-12-22T00:54:28.146Z,83.00
2018-12-22T00:57:00.308Z,83.10
2018-12-22T00:59:32.829Z,83.40
2018-12-22T01:03:07.768Z,82.60
2018-12-22T01:05:39.088Z,83.00
2018-12-22T01:08:11.126Z,82.80
2018-12-22T01:10:43.069Z,82.40
2018-12-22T01:13:14.889Z,82.30
2018-12-22T01:15:46.949Z,82.30
2018-12-22T01:18:18.948Z,81.40
2018-12-22T01:20:50.427Z,81.40
2018-12-22T01:23:23.368Z,80.40
2018-12-22T01:25:55.049Z,79.80
2018-12-22T01:28:26.109Z,80.00
2018-12-22T01:30:58.428Z,80.40
2018-12-22T01:33:30.209Z,80.90
2018-12-22T01:36:02.450Z,81.60
2018-12-22T01:38:34.229Z,82.80
2018-12-22T01:41:05.829Z,82.10
2018-12-22T01:43:37.109Z,82.10
2018-12-22T01:46:08.489Z,82.20
2018-12-22T01:48:40.209Z,82.10
2018-12-22T01:51:12.430Z,81.90
2018-12-22T01:53:44.449Z,81.60
2018-12-22T01:56:16.508Z,81.80
2018-12-22T01:58:48.027Z,81.70
2018-12-22T02:01:21.153Z,81.70
2018-12-22T02:03:53.633Z,81.90
2018-12-22T02:06:25.727Z,82.00
2018-12-22T02:08:57.129Z,82.20
2018-12-22T02:11:29.668Z,82.60
2018-12-22T02:14:01.628Z,82.70
2018-12-22T02:16:33.881Z,83.00
2018-12-22T02:19:05.790Z,83.10
2018-12-22T02:21:37.569Z,83.20
2018-12-22T02:24:08.889Z,83.30
2018-12-22T02:26:41.309Z,83.40
2018-12-22T02:29:13.790Z,83.80
2018-12-22T02:31:45.470Z,83.90
2018-12-22T02:34:18.045Z,84.80
2018-12-22T02:36:51.070Z,84.30
2018-12-22T02:39:22.610Z,84.00
2018-12-22T02:41:54.091Z,83.40
2018-12-22T02:44:25.571Z,83.20
2018-12-22T02:46:58.069Z,83.00
2018-12-22T02:49:29.748Z,82.70
2018-12-22T02:52:02.391Z,82.10
2018-12-22T02:54:33.568Z,81.90
2018-12-22T02:57:05.969Z,81.70
2018-12-22T02:59:37.929Z,81.50
2018-12-22T03:02:10.209Z,81.30
2018-12-22T03:04:41.771Z,81.30
2018-12-22T03:07:14.110Z,81.20
2018-12-22T03:09:46.049Z,81.20
2018-12-22T03:12:18.392Z,81.30
2018-12-22T03:14:49.932Z,81.30
2018-12-22T03:17:21.469Z,81.40
2018-12-22T03:19:53.129Z,81.20
2018-12-22T03:22:24.608Z,81.50
2018-12-22T03:24:56.509Z,81.60
2018-12-22T03:27:28.990Z,81.70
2018-12-22T03:30:01.170Z,81.70
2018-12-22T03:32:32.832Z,82.00
2018-12-22T03:35:04.489Z,82.10
2018-12-22T03:37:36.510Z,82.30
2018-12-22T03:40:08.869Z,82.20
2018-12-22T03:42:40.692Z,82.10
2018-12-22T03:45:11.911Z,82.30
2018-12-22T03:47:43.310Z,82.50
2018-12-22T03:50:15.350Z,82.60
2018-12-22T03:52:47.589Z,82.80
2018-12-22T03:55:20.749Z,82.80
2018-12-22T03:57:52.154Z,82.80
2018-12-22T04:00:25.389Z,82.60
2018-12-22T04:02:56.950Z,81.90
2018-12-22T04:05:28.969Z,81.50
2018-12-22T04:08:00.128Z,81.50
2018-12-22T04:10:32.350Z,81.50
2018-12-22T04:13:03.972Z,81.80
2018-12-22T04:15:35.768Z,81.70
2018-12-22T04:18:07.630Z,81.30
2018-12-22T04:20:40.568Z,81.80
2018-12-22T04:23:12.987Z,80.60
2018-12-22T04:25:44.430Z,80.20
2018-12-22T04:28:16.347Z,80.80
2018-12-22T04:30:48.729Z,80.30
2018-12-22T04:33:19.970Z,80.30
2018-12-22T04:35:51.808Z,80.10
2018-12-22T04:38:25.007Z,79.90
2018-12-22T04:40:57.009Z,79.10
2018-12-22T04:43:28.708Z,78.90
2018-12-22T04:46:00.051Z,79.30
2018-12-22T04:48:30.067Z,79.30
2018-12-22T04:51:02.767Z,79.10
2018-12-22T04:53:34.187Z,78.60
2018-12-22T04:56:05.628Z,78.50
2018-12-22T04:58:37.427Z,77.50
2018-12-22T05:01:09.490Z,77.30
2018-12-22T05:03:41.628Z,77.40
2018-12-22T05:06:14.407Z,76.10
2018-12-22T05:08:45.567Z,75.00
2018-12-22T05:11:17.566Z,75.10
2018-12-22T05:13:50.123Z,74.30
2018-12-22T05:16:22.825Z,72.80
2018-12-22T05:18:54.368Z,72.70
2018-12-22T05:21:26.947Z,72.60
2018-12-22T05:23:58.706Z,72.40
2018-12-22T05:26:29.907Z,72.40
2018-12-22T05:29:01.787Z,72.60
2018-12-22T05:31:34.528Z,72.90
2018-12-22T05:34:06.309Z,72.40
2018-12-22T05:36:38.407Z,72.30
2018-12-22T05:39:10.809Z,72.70
2018-12-22T05:41:43.147Z,72.90
2018-12-22T05:44:14.686Z,72.30
2018-12-22T05:46:46.768Z,72.30
2018-12-22T05:49:18.386Z,72.70
2018-12-22T05:51:50.726Z,72.70
2018-12-22T05:54:23.125Z,73.00
2018-12-22T05:56:55.007Z,72.70
2018-12-22T05:59:27.087Z,72.30
2018-12-22T06:01:59.307Z,72.90
2018-12-22T06:04:31.306Z,72.90
2018-12-22T06:07:03.207Z,72.70
2018-12-22T06:09:34.966Z,72.90
2018-12-22T06:12:07.186Z,72.50
2018-12-22T06:14:38.526Z,72.60
2018-12-22T06:17:10.393Z,72.60
2018-12-22T06:19:41.806Z,73.00
2018-12-22T06:22:14.287Z,73.00
2018-12-22T06:24:45.448Z,73.60
2018-12-22T06:27:17.727Z,73.50
2018-12-22T06:29:49.606Z,73.30
2018-12-22T06:32:21.527Z,73.40
2018-12-22T06:34:53.247Z,73.30
2018-12-22T06:37:25.687Z,74.00
2018-12-22T06:39:56.806Z,74.20
2018-12-22T06:42:29.787Z,75.10
2018-12-22T06:45:01.288Z,74.70
2018-12-22T06:47:32.629Z,74.80
2018-12-22T06:50:04.767Z,75.00
2018-12-22T06:52:37.546Z,75.30
2018-12-22T06:55:08.968Z,75.60
2018-12-22T06:57:42.047Z,75.90
2018-12-22T07:00:17.611Z,76.20
2018-12-22T07:02:47.668Z,76.40
2018-12-22T07:05:19.788Z,76.70
2018-12-22T07:07:51.725Z,76.70
2018-12-22T07:10:25.516Z,76.50
2018-12-22T07:12:57.648Z,77.20
2018-12-22T07:15:28.928Z,77.80
2018-12-22T07:18:01.286Z,78.30
2018-12-22T07:20:33.287Z,78.60
2018-12-22T07:23:05.646Z,78.60
2018-12-22T07:25:37.349Z,78.90
2018-12-22T07:28:09.548Z,78.80
2018-12-22T07:30:40.928Z,78.90
2018-12-22T07:33:13.626Z,78.90
2018-12-22T07:35:45.467Z,78.90
2018-12-22T07:38:17.026Z,79.00
2018-12-22T07:40:48.167Z,78.10
2018-12-22T07:43:20.668Z,77.20
2018-12-22T07:45:52.926Z,74.70
2018-12-22T07:48:25.668Z,72.90
2018-12-22T07:50:57.269Z,73.10
2018-12-22T07:53:29.546Z,73.00
2018-12-22T07:56:00.987Z,71.60
2018-12-22T07:58:32.889Z,71.00
2018-12-22T08:01:04.375Z,70.90
2018-12-22T08:03:36.147Z,70.00
2018-12-22T08:06:08.048Z,70.30
2018-12-22T08:08:40.127Z,69.50
2018-12-22T08:11:12.588Z,69.90
2018-12-22T08:13:44.929Z,69.30
2018-12-22T08:16:16.573Z,68.80
2018-12-22T08:18:48.967Z,69.40
2018-12-22T08:21:20.493Z,68.90
2018-12-22T08:23:52.126Z,68.90
2018-12-22T08:26:24.045Z,68.80
2018-12-22T08:28:56.346Z,68.90
2018-12-22T08:31:28.205Z,68.70
2018-12-22T08:34:00.185Z,69.10
2018-12-22T08:36:32.065Z,69.70
2018-12-22T08:39:05.385Z,69.70
2018-12-22T08:41:36.870Z,69.80
2018-12-22T08:44:08.746Z,69.70
2018-12-22T08:46:40.725Z,71.10
2018-12-22T08:49:13.368Z,70.40
2018-12-22T08:51:45.124Z,70.80
2018-12-22T08:54:17.145Z,71.30
2018-12-22T08:56:48.227Z,72.70
2018-12-22T08:59:20.685Z,74.50
2018-12-22T09:01:53.145Z,75.90
2018-12-22T09:04:25.264Z,77.00
2018-12-22T09:06:58.205Z,77.80
2018-12-22T09:09:29.859Z,78.80
2018-12-22T09:12:01.898Z,78.10
2018-12-22T09:14:33.763Z,77.60
2018-12-22T09:17:05.003Z,78.50
2018-12-22T09:19:36.722Z,78.50
2018-12-22T09:22:08.611Z,78.90
2018-12-22T09:24:40.602Z,79.30
2018-12-22T09:27:13.002Z,79.20
2018-12-22T09:29:44.261Z,79.10
2018-12-22T09:32:16.129Z,79.40
2018-12-22T09:34:48.446Z,79.40
2018-12-22T09:37:20.447Z,79.70
2018-12-22T09:39:52.284Z,79.30
2018-12-22T09:42:24.121Z,79.70
2018-12-22T09:44:55.841Z,80.10
2018-12-22T09:47:27.449Z,81.10
2018-12-22T09:49:59.866Z,81.50
2018-12-22T09:52:31.927Z,81.80
2018-12-22T09:55:03.368Z,82.10
2018-12-22T09:57:35.745Z,82.90
2018-12-22T10:00:08.726Z,83.30
2018-12-22T10:02:40.686Z,83.50
2018-12-22T10:05:12.606Z,83.70
2018-12-22T10:07:44.806Z,84.00
2018-12-22T10:10:19.126Z,85.00
2018-12-22T10:12:51.047Z,85.20
2018-12-22T10:15:22.769Z,85.70
2018-12-22T10:17:55.047Z,86.30
2018-12-22T10:20:26.466Z,86.60
2018-12-22T10:22:58.526Z,86.00
2018-12-22T10:25:30.506Z,85.60
2018-12-22T10:28:02.905Z,86.00
2018-12-22T10:30:33.688Z,85.80
2018-12-22T10:33:05.670Z,86.40
2018-12-22T10:35:37.121Z,86.30
2018-12-22T10:38:08.270Z,86.50
2018-12-22T10:40:40.190Z,87.00
2018-12-22T10:43:11.991Z,86.70
2018-12-22T10:45:44.318Z,86.30
2018-12-22T10:48:16.851Z,86.10
2018-12-22T10:50:47.953Z,85.10
2018-12-22T10:53:20.392Z,85.30
2018-12-22T10:55:52.610Z,85.20
2018-12-22T10:58:24.832Z,85.30
2018-12-22T11:00:56.585Z,85.20
2018-12-22T11:03:28.791Z,85.60
2018-12-22T11:05:59.808Z,85.30
2018-12-22T11:08:31.848Z,85.10
2018-12-22T11:11:03.740Z,85.40
2018-12-22T11:13:36.821Z,85.20
2018-12-22T11:16:08.939Z,84.40
2018-12-22T11:18:41.940Z,85.00
2018-12-22T11:21:13.378Z,84.40
2018-12-22T11:23:44.940Z,83.50
2018-12-22T11:26:16.228Z,82.90
2018-12-22T11:28:47.790Z,82.80
2018-12-22T11:31:19.709Z,83.50
2018-12-22T11:33:51.128Z,83.40
2018-12-22T11:36:23.229Z,83.00
2018-12-22T11:38:54.815Z,82.90
2018-12-22T11:41:26.271Z,82.70
2018-12-22T11:43:58.493Z,82.80
2018-12-22T11:46:29.109Z,82.10
2018-12-22T11:49:34.887Z,82.50
2018-12-22T11:52:05.997Z,82.10
2018-12-22T11:54:37.808Z,83.00
2018-12-22T11:57:09.670Z,84.00
2018-12-22T11:59:42.123Z,83.10
2018-12-22T12:02:14.211Z,83.70
2018-12-22T12:04:46.043Z,83.40
2018-12-22T12:07:17.463Z,83.70
2018-12-22T12:09:49.641Z,84.30
2018-12-22T12:12:21.268Z,84.10
2018-12-22T12:14:53.404Z,84.30
2018-12-22T12:18:41.464Z,84.70
2018-12-22T12:21:13.009Z,85.00
2018-12-22T12:23:44.923Z,85.80
2018-12-22T12:26:16.742Z,85.60
2018-12-22T12:28:49.047Z,86.10
2018-12-22T12:31:20.283Z,85.90
2018-12-22T12:33:52.664Z,85.60
2018-12-22T12:36:24.524Z,86.50
2018-12-22T12:38:56.651Z,86.20
2018-12-22T12:41:27.959Z,86.20
2018-12-22T12:44:00.343Z,86.60
2018-12-22T12:46:40.083Z,86.50
2018-12-22T12:49:11.987Z,85.80
2018-12-22T12:51:43.724Z,86.50
2018-12-22T12:54:15.861Z,85.80
2018-12-22T12:56:51.963Z,85.40
2018-12-22T12:59:24.472Z,85.30
2018-12-22T13:02:01.013Z,84.70
2018-12-22T13:04:30.703Z,83.40
2018-12-22T13:07:02.243Z,83.60
2018-12-22T13:09:34.163Z,83.10
2018-12-22T13:12:14.623Z,82.00
2018-12-22T13:14:49.204Z,83.30
2018-12-22T13:17:22.127Z,83.60
2018-12-22T13:19:54.224Z,83.70
2018-12-22T13:22:25.954Z,84.10
2018-12-22T13:24:57.625Z,83.30
2018-12-22T13:27:30.024Z,83.20
2018-12-22T13:30:01.946Z,83.50
2018-12-22T13:32:33.385Z,83.70
2018-12-22T13:35:05.885Z,83.30
2018-12-22T13:37:37.184Z,83.40
2018-12-22T13:40:10.903Z,82.50
2018-12-22T13:42:42.525Z,82.10
2018-12-22T13:45:14.983Z,82.00
2018-12-22T13:47:46.755Z,80.60
2018-12-22T13:50:18.634Z,80.30
2018-12-22T13:52:51.044Z,81.00
2018-12-22T13:55:23.263Z,81.10
2018-12-22T13:57:54.084Z,81.70
2018-12-22T14:00:25.884Z,81.80
2018-12-22T14:02:57.663Z,81.60
2018-12-22T14:05:29.247Z,81.80
2018-12-22T14:08:00.823Z,82.30
2018-12-22T14:10:32.924Z,82.20
2018-12-22T14:13:05.265Z,81.20
2018-12-22T14:15:39.923Z,80.80
2018-12-22T14:18:26.704Z,81.60
2018-12-22T14:20:58.423Z,81.50
2018-12-22T14:23:42.745Z,82.00
2018-12-22T14:26:14.104Z,81.80
2018-12-22T14:28:45.708Z,81.10
2018-12-22T14:31:17.944Z,80.70
2018-12-22T14:33:49.603Z,80.60
2018-12-22T14:36:21.503Z,80.90
2018-12-22T14:38:52.683Z,81.00
2018-12-22T14:41:24.343Z,81.10
2018-12-22T14:43:56.184Z,80.00
2018-12-22T14:46:28.365Z,80.60
2018-12-22T14:48:59.586Z,81.50
2018-12-22T14:51:31.455Z,81.60
2018-12-22T14:54:03.207Z,81.90
2018-12-22T14:56:39.144Z,81.80
2018-12-22T14:59:12.147Z,81.80
2018-12-22T15:01:43.843Z,82.00
2018-12-22T15:04:16.324Z,82.10
2018-12-22T15:06:48.224Z,82.60
2018-12-22T15:09:19.904Z,81.90
2018-12-22T15:11:52.330Z,82.10
2018-12-22T15:14:24.932Z,82.70
2018-12-22T15:16:56.925Z,82.80
2018-12-22T15:19:29.926Z,83.50
2018-12-22T15:22:02.004Z,83.30
2018-12-22T15:24:34.084Z,83.20
2018-12-22T15:27:05.763Z,83.40
2018-12-22T15:29:37.423Z,83.40
2018-12-22T15:32:09.383Z,83.80
2018-12-22T15:34:42.064Z,83.50
2018-12-22T15:37:14.511Z,83.10
2018-12-22T15:39:46.105Z,83.60
2018-12-22T15:42:17.647Z,83.90
2018-12-22T15:44:49.424Z,83.70
2018-12-22T15:47:21.523Z,83.70
2018-12-22T15:49:53.224Z,83.90
2018-12-22T15:52:25.747Z,83.70
2018-12-22T15:54:57.883Z,83.50
2018-12-22T15:57:29.626Z,83.40
2018-12-22T16:00:01.870Z,83.70
2018-12-22T16:02:33.564Z,84.30
2018-12-22T16:05:05.804Z,84.60
2018-12-22T16:07:37.423Z,84.60
2018-12-22T16:10:12.122Z,84.20
2018-12-22T16:12:43.982Z,84.20
2018-12-22T16:15:18.463Z,84.00
2018-12-22T16:17:50.122Z,83.90
2018-12-22T16:20:22.464Z,84.20
2018-12-22T16:22:58.063Z,84.40
2018-12-22T16:25:30.163Z,84.60
2018-12-22T16:28:06.682Z,84.80
2018-12-22T16:30:45.403Z,84.90
2018-12-22T16:33:16.785Z,85.00
2018-12-22T16:35:48.243Z,84.80
2018-12-22T16:38:20.045Z,84.30
2018-12-22T16:40:51.304Z,84.50
2018-12-22T16:43:23.804Z,84.20
2018-12-22T16:45:57.044Z,84.10
2018-12-22T16:48:28.564Z,83.30
2018-12-22T16:51:00.664Z,82.80
2018-12-22T16:53:33.512Z,82.70
2018-12-22T16:56:05.265Z,82.60
2018-12-22T16:58:39.354Z,82.00
2018-12-22T17:01:17.723Z,81.70
2018-12-22T17:03:49.323Z,81.80
2018-12-22T17:06:20.963Z,82.10
2018-12-22T17:08:53.623Z,81.90
2018-12-22T17:11:25.183Z,81.70
2018-12-22T17:13:56.922Z,81.80
2018-12-22T17:16:28.443Z,81.80
2018-12-22T17:19:00.391Z,81.70
2018-12-22T17:21:40.025Z,81.40
2018-12-22T17:26:23.845Z,81.00
2018-12-22T17:28:55.924Z,81.00
2018-12-22T17:31:28.259Z,80.80
2018-12-22T17:34:00.146Z,80.80
2018-12-22T17:36:31.664Z,81.30
2018-12-22T17:39:03.144Z,81.20
2018-12-22T17:41:34.984Z,81.50
2018-12-22T17:44:06.765Z,82.00
2018-12-22T17:46:38.523Z,81.90
2018-12-22T17:49:10.665Z,81.70
2018-12-22T17:51:42.324Z,82.10
2018-12-22T17:54:12.185Z,82.40
2018-12-22T17:56:42.304Z,82.40
2018-12-22T17:59:12.164Z,82.60
2018-12-22T18:01:43.905Z,82.10
2018-12-22T18:04:14.365Z,82.00
2018-12-22T18:06:44.447Z,82.30
2018-12-22T18:09:14.525Z,82.30
2018-12-22T18:11:44.464Z,82.20
2018-12-22T18:14:16.804Z,81.90
2018-12-22T18:16:46.824Z,81.80
2018-12-22T18:19:16.766Z,81.70
2018-12-22T18:21:46.858Z,81.80
2018-12-22T18:24:17.144Z,81.80
2018-12-22T18:26:47.084Z,81.60
2018-12-22T18:29:16.885Z,81.10
2018-12-22T18:31:49.066Z,81.10
2018-12-22T18:34:18.924Z,80.90
2018-12-22T18:36:48.945Z,80.60
2018-12-22T18:39:19.004Z,80.70
2018-12-22T18:41:48.943Z,80.90
2018-12-22T18:44:18.805Z,81.40
2018-12-22T18:46:49.271Z,81.00
2018-12-22T18:49:19.128Z,81.00
2018-12-22T18:51:49.406Z,81.10
2018-12-22T18:54:20.668Z,80.70
2018-12-22T18:56:50.844Z,81.30
2018-12-22T18:59:21.726Z,81.00
2018-12-22T19:01:52.345Z,81.00
2018-12-22T19:04:22.145Z,81.10
2018-12-22T19:06:54.884Z,81.70
2018-12-22T19:09:27.965Z,81.90
2018-12-22T19:11:58.267Z,82.90
2018-12-22T19:14:28.084Z,82.40
2018-12-22T19:16:58.046Z,81.40
2018-12-22T19:19:27.825Z,80.80
2018-12-22T19:21:58.044Z,82.00
2018-12-22T19:24:27.925Z,81.50
2018-12-22T19:26:57.904Z,81.50
2018-12-22T19:29:27.744Z,81.30
2018-12-22T19:31:57.764Z,81.40
2018-12-22T19:34:27.583Z,81.30
2018-12-22T19:36:58.265Z,80.70
2018-12-22T19:39:28.205Z,81.10
2018-12-22T19:41:58.265Z,81.00
2018-12-22T19:44:28.126Z,80.90
2018-12-22T19:46:58.364Z,81.00
2018-12-22T19:49:29.550Z,81.50
2018-12-22T19:52:02.024Z,81.30
2018-12-22T19:54:31.965Z,81.60
2018-12-22T19:57:01.946Z,81.60
2018-12-22T19:59:31.983Z,82.20
2018-12-22T20:02:02.007Z,82.90
2018-12-22T20:04:34.045Z,82.90
2018-12-22T20:07:04.324Z,83.20
2018-12-22T20:09:34.224Z,83.50
2018-12-22T20:12:04.104Z,83.80
2018-12-22T20:14:34.084Z,84.10
2018-12-22T20:17:06.174Z,84.50
2018-12-22T20:19:38.283Z,85.00
2018-12-22T20:22:08.649Z,85.20
2018-12-22T20:24:38.493Z,85.10
2018-12-22T20:27:08.408Z,85.30
2018-12-22T20:29:38.368Z,85.40
2018-12-22T20:32:08.608Z,85.50
2018-12-22T20:34:38.448Z,85.50
2018-12-22T20:37:08.468Z,85.70
2018-12-22T20:39:38.468Z,85.10
2018-12-22T20:42:08.569Z,85.10
2018-12-22T20:44:38.372Z,85.30
2018-12-22T20:47:10.270Z,85.70
2018-12-22T20:49:40.008Z,85.30
2018-12-22T20:52:09.929Z,85.50
2018-12-22T20:54:39.731Z,86.20
2018-12-22T20:57:09.760Z,86.20
2018-12-22T20:59:39.569Z,86.50
2018-12-22T21:02:09.535Z,86.70
2018-12-22T21:04:39.370Z,87.00
2018-12-22T21:07:09.409Z,87.20
2018-12-22T21:09:39.491Z,87.60
2018-12-22T21:12:09.570Z,87.70
2018-12-22T21:14:39.329Z,87.80
2018-12-22T21:17:09.412Z,88.00
2018-12-22T21:19:39.188Z,88.20
2018-12-22T21:22:10.010Z,88.20
2018-12-22T21:24:40.689Z,88.40
2018-12-22T21:27:12.669Z,88.70
2018-12-22T21:29:44.490Z,88.20
2018-12-22T21:32:14.509Z,88.10
2018-12-22T21:34:44.449Z,88.00
2018-12-22T21:37:14.409Z,87.90
2018-12-22T21:39:44.289Z,87.50
2018-12-22T21:42:16.029Z,86.90
2018-12-22T21:44:45.809Z,86.30
2018-12-22T21:47:15.710Z,86.30
2018-12-22T21:49:45.450Z,85.90
2018-12-22T21:52:15.232Z,85.60
2018-12-22T21:54:45.070Z,85.90
2018-12-22T21:57:15.110Z,86.00
2018-12-22T21:59:44.891Z,85.70
2018-12-22T22:02:15.090Z,85.90
2018-12-22T22:04:44.830Z,86.20
2018-12-22T22:07:14.849Z,86.20
2018-12-22T22:09:46.569Z,86.40
2018-12-22T22:12:18.273Z,86.60
2018-12-22T22:14:48.250Z,86.90
2018-12-22T22:17:18.151Z,87.50
2018-12-22T22:19:48.070Z,87.70
2018-12-22T22:22:18.210Z,87.20
2018-12-22T22:24:48.150Z,87.40
2018-12-22T22:27:18.071Z,87.60
2018-12-22T22:29:47.976Z,87.60
2018-12-22T22:32:17.890Z,88.40
2018-12-22T22:34:47.710Z,88.00
2018-12-22T22:37:17.570Z,87.90
2018-12-22T22:39:47.430Z,87.30
2018-12-22T22:42:17.330Z,87.10
2018-12-22T22:44:47.330Z,86.80
2018-12-22T22:47:18.290Z,86.30
2018-12-22T22:49:48.131Z,86.60
2018-12-22T22:52:18.170Z,86.50
2018-12-22T22:54:50.034Z,86.50
2018-12-22T22:57:19.970Z,85.90
2018-12-22T22:59:49.770Z,85.30
2018-12-22T23:02:19.830Z,84.60
2018-12-22T23:04:54.440Z,84.10
2018-12-22T23:07:21.549Z,83.90
2018-12-22T23:09:53.270Z,83.70
2018-12-22T23:12:23.469Z,82.60
2018-12-22T23:14:53.409Z,83.00
2018-12-22T23:17:23.308Z,82.60
2018-12-22T23:19:53.109Z,83.00
2018-12-22T23:22:23.128Z,83.00
2018-12-22T23:24:52.891Z,82.70
2018-12-22T23:27:22.848Z,82.70
2018-12-22T23:29:52.690Z,82.50
2018-12-22T23:32:24.189Z,82.20
2018-12-22T23:35:02.714Z,82.00
2018-12-22T23:37:26.091Z,81.90
2018-12-22T23:39:55.850Z,82.00
2018-12-22T23:42:25.728Z,81.40
2018-12-22T23:44:55.491Z,80.80
2018-12-22T23:47:27.630Z,80.40
2018-12-22T23:49:59.810Z,80.20
2018-12-22T23:52:29.808Z,79.30
2018-12-22T23:54:59.629Z,79.40
2018-12-22T23:57:30.150Z,78.90
